sensor_id;sensor_type;location;lat;lon;timestamp;P1;durP1;ratioP1;P2;durP2;ratioP2
76403;SDS011;65232;48.358;2.122;2023-11-21T00:00:13;4.80;;;2.08;;
76403;SDS011;65232;48.358;2.122;2023-11-21T00:00:39;4.00;;;1.63;;
76403;SDS011;65232;48.358;2.122;2023-11-21T00:01:05;5.40;;;2.08;;
76403;SDS011;65232;48.358;2.122;2023-11-21T00:01:33;5.63;;;1.85;;
76403;SDS011;65232;48.358;2.122;2023-11-21T00:01:59;2.40;;;1.10;;
76403;SDS011;65232;48.358;2.122;2023-11-21T00:02:24;2.38;;;1.15;;
76403;SDS011;65232;48.358;2.122;2023-11-21T00:02:50;5.15;;;1.40;;
76403;SDS011;65232;48.358;2.122;2023-11-21T00:03:15;4.32;;;1.38;;
76403;SDS011;65232;48.358;2.122;2023-11-21T00:03:41;5.32;;;1.85;;
76403;SDS011;65232;48.358;2.122;2023-11-21T00:04:06;5.90;;;1.58;;
76403;SDS011;65232;48.358;2.122;2023-11-21T00:04:32;5.88;;;1.90;;
76403;SDS011;65232;48.358;2.122;2023-11-21T00:04:57;3.20;;;1.20;;
76403;SDS011;65232;48.358;2.122;2023-11-21T00:05:23;4.85;;;1.35;;
76403;SDS011;65232;48.358;2.122;2023-11-21T00:05:48;3.55;;;1.27;;
76403;SDS011;65232;48.358;2.122;2023-11-21T00:06:14;3.88;;;1.80;;
76403;SDS011;65232;48.358;2.122;2023-11-21T00:06:39;8.05;;;1.67;;
76403;SDS011;65232;48.358;2.122;2023-11-21T00:07:06;3.65;;;1.30;;
76403;SDS011;65232;48.358;2.122;2023-11-21T00:07:31;5.00;;;1.38;;
76403;SDS011;65232;48.358;2.122;2023-11-21T00:07:56;3.97;;;1.52;;
76403;SDS011;65232;48.358;2.122;2023-11-21T00:08:22;4.80;;;1.95;;
76403;SDS011;65232;48.358;2.122;2023-11-21T00:08:47;3.92;;;1.77;;
76403;SDS011;65232;48.358;2.122;2023-11-21T00:09:13;5.88;;;1.67;;
76403;SDS011;65232;48.358;2.122;2023-11-21T00:09:40;5.80;;;1.50;;
76403;SDS011;65232;48.358;2.122;2023-11-21T00:10:06;2.88;;;1.30;;
76403;SDS011;65232;48.358;2.122;2023-11-21T00:10:33;3.47;;;1.30;;
76403;SDS011;65232;48.358;2.122;2023-11-21T00:10:59;4.93;;;1.52;;
76403;SDS011;65232;48.358;2.122;2023-11-21T00:11:25;4.03;;;1.55;;
76403;SDS011;65232;48.358;2.122;2023-11-21T00:11:51;4.22;;;1.55;;
76403;SDS011;65232;48.358;2.122;2023-11-21T00:12:16;4.13;;;1.80;;
76403;SDS011;65232;48.358;2.122;2023-11-21T00:12:43;4.85;;;1.80;;
76403;SDS011;65232;48.358;2.122;2023-11-21T00:13:08;3.33;;;1.30;;
76403;SDS011;65232;48.358;2.122;2023-11-21T00:13:33;3.40;;;1.60;;
76403;SDS011;65232;48.358;2.122;2023-11-21T00:14:00;3.78;;;1.67;;
76403;SDS011;65232;48.358;2.122;2023-11-21T00:14:25;8.15;;;1.60;;
76403;SDS011;65232;48.358;2.122;2023-11-21T00:14:50;3.85;;;1.20;;
76403;SDS011;65232;48.358;2.122;2023-11-21T00:15:16;6.75;;;2.38;;
76403;SDS011;65232;48.358;2.122;2023-11-21T00:15:41;8.27;;;3.10;;
76403;SDS011;65232;48.358;2.122;2023-11-21T00:16:06;8.07;;;3.88;;
76403;SDS011;65232;48.358;2.122;2023-11-21T00:16:32;8.88;;;4.20;;
76403;SDS011;65232;48.358;2.122;2023-11-21T00:16:58;6.55;;;3.05;;
76403;SDS011;65232;48.358;2.122;2023-11-21T00:17:49;4.90;;;1.80;;
76403;SDS011;65232;48.358;2.122;2023-11-21T00:18:15;4.88;;;1.77;;
76403;SDS011;65232;48.358;2.122;2023-11-21T00:18:40;5.72;;;1.73;;
76403;SDS011;65232;48.358;2.122;2023-11-21T00:19:05;6.97;;;2.10;;
76403;SDS011;65232;48.358;2.122;2023-11-21T00:19:31;8.88;;;2.17;;
76403;SDS011;65232;48.358;2.122;2023-11-21T00:19:57;3.75;;;1.85;;
76403;SDS011;65232;48.358;2.122;2023-11-21T00:20:22;5.50;;;1.77;;
76403;SDS011;65232;48.358;2.122;2023-11-21T00:20:47;4.47;;;1.98;;
76403;SDS011;65232;48.358;2.122;2023-11-21T00:21:13;3.45;;;1.67;;
76403;SDS011;65232;48.358;2.122;2023-11-21T00:21:38;4.45;;;1.65;;
76403;SDS011;65232;48.358;2.122;2023-11-21T00:22:04;4.07;;;1.38;;
76403;SDS011;65232;48.358;2.122;2023-11-21T00:22:29;1.98;;;1.30;;
76403;SDS011;65232;48.358;2.122;2023-11-21T00:22:55;5.78;;;1.30;;
76403;SDS011;65232;48.358;2.122;2023-11-21T00:23:20;3.60;;;1.30;;
76403;SDS011;65232;48.358;2.122;2023-11-21T00:23:45;3.63;;;1.35;;
76403;SDS011;65232;48.358;2.122;2023-11-21T00:24:11;8.40;;;1.63;;
76403;SDS011;65232;48.358;2.122;2023-11-21T00:24:38;4.75;;;1.40;;
76403;SDS011;65232;48.358;2.122;2023-11-21T00:25:05;5.65;;;1.25;;
76403;SDS011;65232;48.358;2.122;2023-11-21T00:25:30;4.70;;;1.38;;
76403;SDS011;65232;48.358;2.122;2023-11-21T00:25:56;3.67;;;1.33;;
76403;SDS011;65232;48.358;2.122;2023-11-21T00:26:22;5.70;;;1.50;;
76403;SDS011;65232;48.358;2.122;2023-11-21T00:26:56;2.90;;;1.10;;
76403;SDS011;65232;48.358;2.122;2023-11-21T00:27:21;3.38;;;1.23;;
76403;SDS011;65232;48.358;2.122;2023-11-21T00:27:46;4.03;;;1.83;;
76403;SDS011;65232;48.358;2.122;2023-11-21T00:28:12;6.63;;;2.17;;
76403;SDS011;65232;48.358;2.122;2023-11-21T00:28:37;8.70;;;2.45;;
76403;SDS011;65232;48.358;2.122;2023-11-21T00:29:03;8.25;;;2.97;;
76403;SDS011;65232;48.358;2.122;2023-11-21T00:29:29;6.57;;;2.15;;
76403;SDS011;65232;48.358;2.122;2023-11-21T00:29:54;4.80;;;2.25;;
76403;SDS011;65232;48.358;2.122;2023-11-21T00:30:19;6.50;;;2.20;;
76403;SDS011;65232;48.358;2.122;2023-11-21T00:30:47;4.95;;;1.70;;
76403;SDS011;65232;48.358;2.122;2023-11-21T00:31:13;5.25;;;1.70;;
76403;SDS011;65232;48.358;2.122;2023-11-21T00:31:38;6.28;;;1.85;;
76403;SDS011;65232;48.358;2.122;2023-11-21T00:32:05;5.90;;;1.80;;
76403;SDS011;65232;48.358;2.122;2023-11-21T00:32:30;6.70;;;1.30;;
76403;SDS011;65232;48.358;2.122;2023-11-21T00:32:57;5.10;;;1.65;;
76403;SDS011;65232;48.358;2.122;2023-11-21T00:33:22;3.47;;;1.33;;
76403;SDS011;65232;48.358;2.122;2023-11-21T00:33:47;4.30;;;1.40;;
76403;SDS011;65232;48.358;2.122;2023-11-21T00:34:13;4.85;;;1.83;;
76403;SDS011;65232;48.358;2.122;2023-11-21T00:34:38;4.25;;;1.70;;
76403;SDS011;65232;48.358;2.122;2023-11-21T00:35:04;4.13;;;1.42;;
76403;SDS011;65232;48.358;2.122;2023-11-21T00:35:30;4.13;;;1.77;;
76403;SDS011;65232;48.358;2.122;2023-11-21T00:35:56;3.85;;;1.10;;
76403;SDS011;65232;48.358;2.122;2023-11-21T00:36:21;3.88;;;1.40;;
76403;SDS011;65232;48.358;2.122;2023-11-21T00:36:47;3.15;;;1.30;;
76403;SDS011;65232;48.358;2.122;2023-11-21T00:37:12;3.17;;;1.17;;
76403;SDS011;65232;48.358;2.122;2023-11-21T00:37:37;4.10;;;1.50;;
76403;SDS011;65232;48.358;2.122;2023-11-21T00:38:05;4.03;;;1.30;;
76403;SDS011;65232;48.358;2.122;2023-11-21T00:38:31;5.28;;;1.40;;
76403;SDS011;65232;48.358;2.122;2023-11-21T00:38:57;5.13;;;1.52;;
76403;SDS011;65232;48.358;2.122;2023-11-21T00:39:24;5.47;;;1.40;;
76403;SDS011;65232;48.358;2.122;2023-11-21T00:39:51;4.25;;;1.30;;
76403;SDS011;65232;48.358;2.122;2023-11-21T00:40:16;6.32;;;2.10;;
76403;SDS011;65232;48.358;2.122;2023-11-21T00:40:44;6.85;;;2.75;;
76403;SDS011;65232;48.358;2.122;2023-11-21T00:41:09;6.45;;;1.90;;
76403;SDS011;65232;48.358;2.122;2023-11-21T00:41:35;5.40;;;1.90;;
76403;SDS011;65232;48.358;2.122;2023-11-21T00:42:01;4.78;;;1.50;;
76403;SDS011;65232;48.358;2.122;2023-11-21T00:42:26;4.53;;;1.60;;
76403;SDS011;65232;48.358;2.122;2023-11-21T00:42:52;5.45;;;1.70;;
76403;SDS011;65232;48.358;2.122;2023-11-21T00:43:18;6.20;;;1.60;;
76403;SDS011;65232;48.358;2.122;2023-11-21T00:43:43;5.10;;;1.85;;
76403;SDS011;65232;48.358;2.122;2023-11-21T00:44:09;3.55;;;1.42;;
76403;SDS011;65232;48.358;2.122;2023-11-21T00:44:37;3.95;;;1.35;;
76403;SDS011;65232;48.358;2.122;2023-11-21T00:45:03;3.85;;;1.40;;
76403;SDS011;65232;48.358;2.122;2023-11-21T00:45:28;3.47;;;1.83;;
76403;SDS011;65232;48.358;2.122;2023-11-21T00:45:54;5.55;;;1.80;;
76403;SDS011;65232;48.358;2.122;2023-11-21T00:46:19;5.55;;;1.88;;
76403;SDS011;65232;48.358;2.122;2023-11-21T00:46:44;3.83;;;1.40;;
76403;SDS011;65232;48.358;2.122;2023-11-21T00:47:10;4.43;;;1.67;;
76403;SDS011;65232;48.358;2.122;2023-11-21T00:47:35;4.80;;;1.70;;
76403;SDS011;65232;48.358;2.122;2023-11-21T00:48:00;3.53;;;1.77;;
76403;SDS011;65232;48.358;2.122;2023-11-21T00:48:26;5.30;;;1.60;;
76403;SDS011;65232;48.358;2.122;2023-11-21T00:48:51;4.60;;;1.60;;
76403;SDS011;65232;48.358;2.122;2023-11-21T00:49:17;3.42;;;1.40;;
76403;SDS011;65232;48.358;2.122;2023-11-21T00:49:42;4.15;;;1.52;;
76403;SDS011;65232;48.358;2.122;2023-11-21T00:50:08;4.35;;;1.48;;
76403;SDS011;65232;48.358;2.122;2023-11-21T00:50:34;3.42;;;1.67;;
76403;SDS011;65232;48.358;2.122;2023-11-21T00:51:00;3.20;;;1.55;;
76403;SDS011;65232;48.358;2.122;2023-11-21T00:51:25;4.22;;;1.60;;
76403;SDS011;65232;48.358;2.122;2023-11-21T00:51:51;6.35;;;1.48;;
76403;SDS011;65232;48.358;2.122;2023-11-21T00:52:16;3.88;;;1.55;;
76403;SDS011;65232;48.358;2.122;2023-11-21T00:52:42;4.10;;;1.40;;
76403;SDS011;65232;48.358;2.122;2023-11-21T00:53:07;4.75;;;1.70;;
76403;SDS011;65232;48.358;2.122;2023-11-21T00:53:34;6.45;;;1.60;;
76403;SDS011;65232;48.358;2.122;2023-11-21T00:53:59;4.57;;;1.48;;
76403;SDS011;65232;48.358;2.122;2023-11-21T00:54:26;4.55;;;1.27;;
76403;SDS011;65232;48.358;2.122;2023-11-21T00:54:52;3.47;;;1.40;;
76403;SDS011;65232;48.358;2.122;2023-11-21T00:55:18;3.10;;;1.50;;
76403;SDS011;65232;48.358;2.122;2023-11-21T00:55:43;5.20;;;1.60;;
76403;SDS011;65232;48.358;2.122;2023-11-21T00:56:09;4.90;;;1.73;;
76403;SDS011;65232;48.358;2.122;2023-11-21T00:56:35;4.20;;;2.00;;
76403;SDS011;65232;48.358;2.122;2023-11-21T00:57:01;5.78;;;1.50;;
76403;SDS011;65232;48.358;2.122;2023-11-21T00:57:26;4.88;;;1.65;;
76403;SDS011;65232;48.358;2.122;2023-11-21T00:57:52;4.47;;;1.80;;
76403;SDS011;65232;48.358;2.122;2023-11-21T00:58:17;3.50;;;1.27;;
76403;SDS011;65232;48.358;2.122;2023-11-21T00:58:42;7.80;;;1.85;;
76403;SDS011;65232;48.358;2.122;2023-11-21T00:59:12;3.00;;;1.50;;
76403;SDS011;65232;48.358;2.122;2023-11-21T00:59:40;5.95;;;2.17;;
76403;SDS011;65232;48.358;2.122;2023-11-21T01:00:39;9.82;;;3.83;;
76403;SDS011;65232;48.358;2.122;2023-11-21T01:01:04;10.02;;;4.47;;
76403;SDS011;65232;48.358;2.122;2023-11-21T01:01:56;6.15;;;2.58;;
76403;SDS011;65232;48.358;2.122;2023-11-21T01:02:21;6.13;;;2.50;;
76403;SDS011;65232;48.358;2.122;2023-11-21T01:02:47;6.07;;;2.70;;
76403;SDS011;65232;48.358;2.122;2023-11-21T01:03:13;5.75;;;2.03;;
76403;SDS011;65232;48.358;2.122;2023-11-21T01:03:38;4.03;;;1.67;;
76403;SDS011;65232;48.358;2.122;2023-11-21T01:04:04;3.53;;;1.38;;
76403;SDS011;65232;48.358;2.122;2023-11-21T01:04:30;3.95;;;1.83;;
76403;SDS011;65232;48.358;2.122;2023-11-21T01:04:57;6.63;;;1.63;;
76403;SDS011;65232;48.358;2.122;2023-11-21T01:05:22;2.92;;;1.52;;
76403;SDS011;65232;48.358;2.122;2023-11-21T01:05:48;4.22;;;1.70;;
76403;SDS011;65232;48.358;2.122;2023-11-21T01:06:15;3.85;;;1.38;;
76403;SDS011;65232;48.358;2.122;2023-11-21T01:06:41;6.68;;;1.55;;
76403;SDS011;65232;48.358;2.122;2023-11-21T01:07:07;4.00;;;1.60;;
76403;SDS011;65232;48.358;2.122;2023-11-21T01:07:33;5.03;;;1.85;;
76403;SDS011;65232;48.358;2.122;2023-11-21T01:07:58;5.55;;;2.03;;
76403;SDS011;65232;48.358;2.122;2023-11-21T01:08:24;6.55;;;3.30;;
76403;SDS011;65232;48.358;2.122;2023-11-21T01:08:49;9.35;;;5.95;;
76403;SDS011;65232;48.358;2.122;2023-11-21T01:09:15;12.95;;;6.90;;
76403;SDS011;65232;48.358;2.122;2023-11-21T01:09:42;17.08;;;8.65;;
76403;SDS011;65232;48.358;2.122;2023-11-21T01:10:09;16.15;;;8.93;;
76403;SDS011;65232;48.358;2.122;2023-11-21T01:10:34;16.42;;;8.48;;
76403;SDS011;65232;48.358;2.122;2023-11-21T01:11:01;13.65;;;6.68;;
76403;SDS011;65232;48.358;2.122;2023-11-21T01:11:27;10.90;;;5.93;;
76403;SDS011;65232;48.358;2.122;2023-11-21T01:11:52;8.00;;;4.90;;
76403;SDS011;65232;48.358;2.122;2023-11-21T01:12:18;7.35;;;4.47;;
76403;SDS011;65232;48.358;2.122;2023-11-21T01:12:44;6.72;;;4.25;;
76403;SDS011;65232;48.358;2.122;2023-11-21T01:13:09;13.57;;;7.65;;
76403;SDS011;65232;48.358;2.122;2023-11-21T01:13:36;12.65;;;7.20;;
76403;SDS011;65232;48.358;2.122;2023-11-21T01:14:02;9.85;;;5.43;;
76403;SDS011;65232;48.358;2.122;2023-11-21T01:14:30;9.32;;;5.20;;
76403;SDS011;65232;48.358;2.122;2023-11-21T01:14:56;7.45;;;4.45;;
76403;SDS011;65232;48.358;2.122;2023-11-21T01:15:22;8.93;;;4.20;;
76403;SDS011;65232;48.358;2.122;2023-11-21T01:15:48;7.43;;;3.30;;
76403;SDS011;65232;48.358;2.122;2023-11-21T01:16:13;6.57;;;3.08;;
76403;SDS011;65232;48.358;2.122;2023-11-21T01:16:39;6.63;;;2.78;;
76403;SDS011;65232;48.358;2.122;2023-11-21T01:17:04;4.22;;;1.92;;
76403;SDS011;65232;48.358;2.122;2023-11-21T01:17:30;4.85;;;2.05;;
76403;SDS011;65232;48.358;2.122;2023-11-21T01:17:56;3.83;;;1.50;;
76403;SDS011;65232;48.358;2.122;2023-11-21T01:18:22;3.08;;;1.63;;
76403;SDS011;65232;48.358;2.122;2023-11-21T01:18:50;3.95;;;1.50;;
76403;SDS011;65232;48.358;2.122;2023-11-21T01:19:15;3.92;;;1.58;;
76403;SDS011;65232;48.358;2.122;2023-11-21T01:19:41;3.30;;;1.10;;
76403;SDS011;65232;48.358;2.122;2023-11-21T01:20:06;3.30;;;1.20;;
76403;SDS011;65232;48.358;2.122;2023-11-21T01:20:36;5.75;;;1.40;;
76403;SDS011;65232;48.358;2.122;2023-11-21T01:21:01;6.18;;;1.23;;
76403;SDS011;65232;48.358;2.122;2023-11-21T01:21:27;4.80;;;1.30;;
76403;SDS011;65232;48.358;2.122;2023-11-21T01:21:53;3.13;;;1.40;;
76403;SDS011;65232;48.358;2.122;2023-11-21T01:22:18;5.00;;;2.47;;
76403;SDS011;65232;48.358;2.122;2023-11-21T01:22:47;4.43;;;2.15;;
76403;SDS011;65232;48.358;2.122;2023-11-21T01:23:14;8.88;;;3.88;;
76403;SDS011;65232;48.358;2.122;2023-11-21T01:23:39;7.03;;;3.85;;
76403;SDS011;65232;48.358;2.122;2023-11-21T01:24:05;8.63;;;4.10;;
76403;SDS011;65232;48.358;2.122;2023-11-21T01:24:32;13.23;;;6.50;;
76403;SDS011;65232;48.358;2.122;2023-11-21T01:24:57;15.90;;;7.68;;
76403;SDS011;65232;48.358;2.122;2023-11-21T01:25:23;28.60;;;15.35;;
76403;SDS011;65232;48.358;2.122;2023-11-21T01:25:48;26.92;;;14.43;;
76403;SDS011;65232;48.358;2.122;2023-11-21T01:26:14;22.67;;;12.07;;
76403;SDS011;65232;48.358;2.122;2023-11-21T01:26:39;21.10;;;9.63;;
76403;SDS011;65232;48.358;2.122;2023-11-21T01:27:05;17.25;;;10.57;;
76403;SDS011;65232;48.358;2.122;2023-11-21T01:27:30;18.42;;;9.48;;
76403;SDS011;65232;48.358;2.122;2023-11-21T01:27:56;16.25;;;8.10;;
76403;SDS011;65232;48.358;2.122;2023-11-21T01:28:21;8.80;;;3.80;;
76403;SDS011;65232;48.358;2.122;2023-11-21T01:28:46;6.55;;;2.85;;
76403;SDS011;65232;48.358;2.122;2023-11-21T01:29:14;10.02;;;4.07;;
76403;SDS011;65232;48.358;2.122;2023-11-21T01:29:40;21.10;;;11.02;;
76403;SDS011;65232;48.358;2.122;2023-11-21T01:30:05;9.63;;;4.78;;
76403;SDS011;65232;48.358;2.122;2023-11-21T01:30:33;5.95;;;3.15;;
76403;SDS011;65232;48.358;2.122;2023-11-21T01:31:00;6.57;;;2.60;;
76403;SDS011;65232;48.358;2.122;2023-11-21T01:31:26;5.55;;;2.33;;
76403;SDS011;65232;48.358;2.122;2023-11-21T01:31:54;4.10;;;2.28;;
76403;SDS011;65232;48.358;2.122;2023-11-21T01:32:21;4.75;;;1.98;;
76403;SDS011;65232;48.358;2.122;2023-11-21T01:32:47;7.70;;;2.10;;
76403;SDS011;65232;48.358;2.122;2023-11-21T01:33:12;12.55;;;4.40;;
76403;SDS011;65232;48.358;2.122;2023-11-21T01:33:40;7.43;;;2.80;;
76403;SDS011;65232;48.358;2.122;2023-11-21T01:34:06;5.82;;;3.00;;
76403;SDS011;65232;48.358;2.122;2023-11-21T01:34:32;11.68;;;4.65;;
76403;SDS011;65232;48.358;2.122;2023-11-21T01:34:57;8.40;;;3.70;;
76403;SDS011;65232;48.358;2.122;2023-11-21T01:35:22;6.32;;;3.22;;
76403;SDS011;65232;48.358;2.122;2023-11-21T01:35:48;7.70;;;4.20;;
76403;SDS011;65232;48.358;2.122;2023-11-21T01:36:13;12.00;;;5.05;;
76403;SDS011;65232;48.358;2.122;2023-11-21T01:36:38;5.90;;;3.33;;
76403;SDS011;65232;48.358;2.122;2023-11-21T01:37:05;8.25;;;4.60;;
76403;SDS011;65232;48.358;2.122;2023-11-21T01:37:30;5.50;;;2.13;;
76403;SDS011;65232;48.358;2.122;2023-11-21T01:37:56;4.50;;;2.13;;
76403;SDS011;65232;48.358;2.122;2023-11-21T01:38:21;3.60;;;1.88;;
76403;SDS011;65232;48.358;2.122;2023-11-21T01:38:47;5.03;;;1.65;;
76403;SDS011;65232;48.358;2.122;2023-11-21T01:39:15;4.70;;;1.83;;
76403;SDS011;65232;48.358;2.122;2023-11-21T01:40:06;5.90;;;1.75;;
76403;SDS011;65232;48.358;2.122;2023-11-21T01:40:38;3.90;;;1.75;;
76403;SDS011;65232;48.358;2.122;2023-11-21T01:41:04;4.18;;;1.42;;
76403;SDS011;65232;48.358;2.122;2023-11-21T01:41:30;3.67;;;1.50;;
76403;SDS011;65232;48.358;2.122;2023-11-21T01:41:55;5.03;;;1.58;;
76403;SDS011;65232;48.358;2.122;2023-11-21T01:42:23;5.45;;;2.28;;
76403;SDS011;65232;48.358;2.122;2023-11-21T01:42:48;2.47;;;1.50;;
76403;SDS011;65232;48.358;2.122;2023-11-21T01:43:14;5.75;;;1.92;;
76403;SDS011;65232;48.358;2.122;2023-11-21T01:43:39;5.63;;;1.50;;
76403;SDS011;65232;48.358;2.122;2023-11-21T01:44:34;2.75;;;1.80;;
76403;SDS011;65232;48.358;2.122;2023-11-21T01:44:59;4.40;;;2.35;;
76403;SDS011;65232;48.358;2.122;2023-11-21T01:45:24;4.90;;;1.70;;
76403;SDS011;65232;48.358;2.122;2023-11-21T01:45:50;3.53;;;1.42;;
76403;SDS011;65232;48.358;2.122;2023-11-21T01:46:16;4.18;;;1.45;;
76403;SDS011;65232;48.358;2.122;2023-11-21T01:46:41;3.67;;;1.73;;
76403;SDS011;65232;48.358;2.122;2023-11-21T01:47:07;3.83;;;1.67;;
76403;SDS011;65232;48.358;2.122;2023-11-21T01:47:59;4.70;;;1.58;;
76403;SDS011;65232;48.358;2.122;2023-11-21T01:48:25;5.40;;;1.90;;
76403;SDS011;65232;48.358;2.122;2023-11-21T01:48:52;4.68;;;1.98;;
76403;SDS011;65232;48.358;2.122;2023-11-21T01:49:19;2.90;;;1.73;;
76403;SDS011;65232;48.358;2.122;2023-11-21T01:49:45;2.90;;;1.75;;
76403;SDS011;65232;48.358;2.122;2023-11-21T01:50:13;7.68;;;1.88;;
76403;SDS011;65232;48.358;2.122;2023-11-21T01:50:41;3.35;;;1.70;;
76403;SDS011;65232;48.358;2.122;2023-11-21T01:51:07;7.50;;;1.77;;
76403;SDS011;65232;48.358;2.122;2023-11-21T01:51:34;2.47;;;1.50;;
76403;SDS011;65232;48.358;2.122;2023-11-21T01:52:01;3.80;;;1.40;;
76403;SDS011;65232;48.358;2.122;2023-11-21T01:52:27;3.42;;;1.40;;
76403;SDS011;65232;48.358;2.122;2023-11-21T01:52:54;4.70;;;1.50;;
76403;SDS011;65232;48.358;2.122;2023-11-21T01:53:23;2.83;;;1.42;;
76403;SDS011;65232;48.358;2.122;2023-11-21T01:53:50;2.95;;;1.48;;
76403;SDS011;65232;48.358;2.122;2023-11-21T01:54:16;5.43;;;1.70;;
76403;SDS011;65232;48.358;2.122;2023-11-21T01:54:43;2.67;;;1.55;;
76403;SDS011;65232;48.358;2.122;2023-11-21T01:55:09;4.75;;;1.40;;
76403;SDS011;65232;48.358;2.122;2023-11-21T01:55:35;5.25;;;1.70;;
76403;SDS011;65232;48.358;2.122;2023-11-21T01:56:01;4.05;;;1.33;;
76403;SDS011;65232;48.358;2.122;2023-11-21T01:56:26;3.78;;;1.27;;
76403;SDS011;65232;48.358;2.122;2023-11-21T01:56:52;3.50;;;1.52;;
76403;SDS011;65232;48.358;2.122;2023-11-21T01:57:19;5.00;;;1.42;;
76403;SDS011;65232;48.358;2.122;2023-11-21T01:57:45;4.00;;;1.80;;
76403;SDS011;65232;48.358;2.122;2023-11-21T01:58:37;5.25;;;1.52;;
76403;SDS011;65232;48.358;2.122;2023-11-21T01:59:38;4.10;;;2.53;;
76403;SDS011;65232;48.358;2.122;2023-11-21T02:00:07;5.57;;;2.13;;
76403;SDS011;65232;48.358;2.122;2023-11-21T02:00:42;6.10;;;3.08;;
76403;SDS011;65232;48.358;2.122;2023-11-21T02:01:08;4.85;;;2.25;;
76403;SDS011;65232;48.358;2.122;2023-11-21T02:01:35;5.72;;;2.38;;
76403;SDS011;65232;48.358;2.122;2023-11-21T02:02:01;4.63;;;1.90;;
76403;SDS011;65232;48.358;2.122;2023-11-21T02:02:26;6.57;;;2.00;;
76403;SDS011;65232;48.358;2.122;2023-11-21T02:02:51;6.00;;;2.05;;
76403;SDS011;65232;48.358;2.122;2023-11-21T02:03:17;6.30;;;1.77;;
76403;SDS011;65232;48.358;2.122;2023-11-21T02:03:42;3.42;;;1.45;;
76403;SDS011;65232;48.358;2.122;2023-11-21T02:04:08;4.00;;;1.50;;
76403;SDS011;65232;48.358;2.122;2023-11-21T02:04:34;5.00;;;1.52;;
76403;SDS011;65232;48.358;2.122;2023-11-21T02:05:02;3.85;;;1.63;;
76403;SDS011;65232;48.358;2.122;2023-11-21T02:05:29;3.50;;;1.75;;
76403;SDS011;65232;48.358;2.122;2023-11-21T02:05:54;3.42;;;1.63;;
76403;SDS011;65232;48.358;2.122;2023-11-21T02:06:20;4.97;;;1.92;;
76403;SDS011;65232;48.358;2.122;2023-11-21T02:06:47;4.07;;;1.83;;
76403;SDS011;65232;48.358;2.122;2023-11-21T02:07:12;3.53;;;1.92;;
76403;SDS011;65232;48.358;2.122;2023-11-21T02:07:38;5.75;;;2.20;;
76403;SDS011;65232;48.358;2.122;2023-11-21T02:08:04;4.10;;;1.88;;
76403;SDS011;65232;48.358;2.122;2023-11-21T02:08:30;4.72;;;1.95;;
76403;SDS011;65232;48.358;2.122;2023-11-21T02:08:55;3.90;;;1.60;;
76403;SDS011;65232;48.358;2.122;2023-11-21T02:09:27;2.60;;;1.40;;
76403;SDS011;65232;48.358;2.122;2023-11-21T02:09:53;5.38;;;1.70;;
76403;SDS011;65232;48.358;2.122;2023-11-21T02:10:19;3.42;;;1.42;;
76403;SDS011;65232;48.358;2.122;2023-11-21T02:10:47;4.40;;;1.90;;
76403;SDS011;65232;48.358;2.122;2023-11-21T02:11:13;3.03;;;1.60;;
76403;SDS011;65232;48.358;2.122;2023-11-21T02:11:39;5.72;;;1.92;;
76403;SDS011;65232;48.358;2.122;2023-11-21T02:12:04;5.88;;;2.22;;
76403;SDS011;65232;48.358;2.122;2023-11-21T02:12:30;5.20;;;2.30;;
76403;SDS011;65232;48.358;2.122;2023-11-21T02:12:55;3.85;;;1.85;;
76403;SDS011;65232;48.358;2.122;2023-11-21T02:13:21;3.88;;;2.00;;
76403;SDS011;65232;48.358;2.122;2023-11-21T02:13:47;4.45;;;2.45;;
76403;SDS011;65232;48.358;2.122;2023-11-21T02:14:15;5.82;;;2.42;;
76403;SDS011;65232;48.358;2.122;2023-11-21T02:14:40;4.05;;;2.30;;
76403;SDS011;65232;48.358;2.122;2023-11-21T02:15:05;6.50;;;2.35;;
76403;SDS011;65232;48.358;2.122;2023-11-21T02:15:39;7.28;;;2.40;;
76403;SDS011;65232;48.358;2.122;2023-11-21T02:16:06;5.55;;;2.35;;
76403;SDS011;65232;48.358;2.122;2023-11-21T02:16:33;3.42;;;2.08;;
76403;SDS011;65232;48.358;2.122;2023-11-21T02:16:58;4.35;;;1.80;;
76403;SDS011;65232;48.358;2.122;2023-11-21T02:17:24;4.28;;;1.63;;
76403;SDS011;65232;48.358;2.122;2023-11-21T02:17:49;4.75;;;1.70;;
76403;SDS011;65232;48.358;2.122;2023-11-21T02:18:16;5.03;;;1.52;;
76403;SDS011;65232;48.358;2.122;2023-11-21T02:18:42;1.92;;;1.38;;
76403;SDS011;65232;48.358;2.122;2023-11-21T02:19:08;5.75;;;1.40;;
76403;SDS011;65232;48.358;2.122;2023-11-21T02:19:37;4.07;;;1.38;;
76403;SDS011;65232;48.358;2.122;2023-11-21T02:20:04;3.05;;;1.48;;
76403;SDS011;65232;48.358;2.122;2023-11-21T02:20:32;4.63;;;1.63;;
76403;SDS011;65232;48.358;2.122;2023-11-21T02:20:59;7.45;;;1.52;;
76403;SDS011;65232;48.358;2.122;2023-11-21T02:21:27;2.90;;;1.42;;
76403;SDS011;65232;48.358;2.122;2023-11-21T02:21:54;3.90;;;1.20;;
76403;SDS011;65232;48.358;2.122;2023-11-21T02:22:21;4.20;;;1.27;;
76403;SDS011;65232;48.358;2.122;2023-11-21T02:22:49;3.80;;;1.25;;
76403;SDS011;65232;48.358;2.122;2023-11-21T02:23:21;3.35;;;1.30;;
76403;SDS011;65232;48.358;2.122;2023-11-21T02:23:48;2.97;;;1.50;;
76403;SDS011;65232;48.358;2.122;2023-11-21T02:24:13;2.78;;;1.42;;
76403;SDS011;65232;48.358;2.122;2023-11-21T02:24:40;5.20;;;1.63;;
76403;SDS011;65232;48.358;2.122;2023-11-21T02:25:07;6.20;;;2.13;;
76403;SDS011;65232;48.358;2.122;2023-11-21T02:25:59;3.45;;;1.50;;
76403;SDS011;65232;48.358;2.122;2023-11-21T02:26:29;3.75;;;1.40;;
76403;SDS011;65232;48.358;2.122;2023-11-21T02:26:54;2.50;;;1.50;;
76403;SDS011;65232;48.358;2.122;2023-11-21T02:27:20;3.60;;;1.27;;
76403;SDS011;65232;48.358;2.122;2023-11-21T02:27:48;5.25;;;1.48;;
76403;SDS011;65232;48.358;2.122;2023-11-21T02:28:13;6.13;;;1.73;;
76403;SDS011;65232;48.358;2.122;2023-11-21T02:28:41;3.47;;;2.10;;
76403;SDS011;65232;48.358;2.122;2023-11-21T02:29:07;6.13;;;2.72;;
76403;SDS011;65232;48.358;2.122;2023-11-21T02:29:35;6.82;;;2.28;;
76403;SDS011;65232;48.358;2.122;2023-11-21T02:30:01;5.05;;;2.00;;
76403;SDS011;65232;48.358;2.122;2023-11-21T02:30:27;6.70;;;2.38;;
76403;SDS011;65232;48.358;2.122;2023-11-21T02:30:53;5.05;;;2.10;;
76403;SDS011;65232;48.358;2.122;2023-11-21T02:31:20;3.80;;;2.30;;
76403;SDS011;65232;48.358;2.122;2023-11-21T02:31:48;5.28;;;2.60;;
76403;SDS011;65232;48.358;2.122;2023-11-21T02:32:20;5.53;;;2.20;;
76403;SDS011;65232;48.358;2.122;2023-11-21T02:32:50;5.30;;;2.17;;
76403;SDS011;65232;48.358;2.122;2023-11-21T02:33:18;5.65;;;2.20;;
76403;SDS011;65232;48.358;2.122;2023-11-21T02:33:45;5.82;;;2.10;;
76403;SDS011;65232;48.358;2.122;2023-11-21T02:34:10;5.50;;;1.90;;
76403;SDS011;65232;48.358;2.122;2023-11-21T02:34:38;4.95;;;1.50;;
76403;SDS011;65232;48.358;2.122;2023-11-21T02:35:04;5.68;;;1.40;;
76403;SDS011;65232;48.358;2.122;2023-11-21T02:35:32;3.83;;;1.30;;
76403;SDS011;65232;48.358;2.122;2023-11-21T02:35:58;4.03;;;1.38;;
76403;SDS011;65232;48.358;2.122;2023-11-21T02:36:24;3.78;;;1.80;;
76403;SDS011;65232;48.358;2.122;2023-11-21T02:36:49;4.50;;;1.90;;
76403;SDS011;65232;48.358;2.122;2023-11-21T02:37:14;5.53;;;2.00;;
76403;SDS011;65232;48.358;2.122;2023-11-21T02:37:40;3.95;;;1.50;;
76403;SDS011;65232;48.358;2.122;2023-11-21T02:38:06;4.57;;;1.70;;
76403;SDS011;65232;48.358;2.122;2023-11-21T02:38:32;4.63;;;1.42;;
76403;SDS011;65232;48.358;2.122;2023-11-21T02:38:57;4.78;;;1.67;;
76403;SDS011;65232;48.358;2.122;2023-11-21T02:39:22;7.05;;;2.03;;
76403;SDS011;65232;48.358;2.122;2023-11-21T02:39:48;6.20;;;1.70;;
76403;SDS011;65232;48.358;2.122;2023-11-21T02:40:14;4.95;;;1.95;;
76403;SDS011;65232;48.358;2.122;2023-11-21T02:40:42;4.25;;;1.65;;
76403;SDS011;65232;48.358;2.122;2023-11-21T02:41:08;2.78;;;1.13;;
76403;SDS011;65232;48.358;2.122;2023-11-21T02:41:33;3.70;;;1.63;;